createdAt,value
2018-11-26T00:01:30.232Z,52.30
2018-11-26T00:03:58.215Z,50.10
2018-11-26T00:06:25.896Z,49.00
2018-11-26T00:08:53.640Z,47.77
2018-11-26T00:11:29.773Z,44.07
2018-11-26T00:13:57.513Z,47.53
2018-11-26T00:16:25.183Z,47.63
2018-11-26T00:18:52.778Z,50.50
2018-11-26T00:21:26.433Z,47.67
2018-11-26T00:23:54.076Z,46.33
2018-11-26T00:26:21.710Z,44.57
2018-11-26T00:28:49.645Z,48.80
2018-11-26T00:31:17.316Z,41.67
2018-11-26T00:33:45.174Z,44.90
2018-11-26T00:36:12.911Z,44.13
2018-11-26T00:38:41.551Z,43.77
2018-11-26T00:41:09.264Z,43.70
2018-11-26T00:43:36.882Z,46.13
2018-11-26T00:46:04.715Z,47.37
2018-11-26T00:48:32.334Z,42.70
2018-11-26T00:51:00.178Z,39.83
2018-11-26T00:53:27.855Z,46.07
2018-11-26T00:55:55.598Z,48.17
2018-11-26T00:58:23.246Z,42.53
2018-11-26T01:00:50.828Z,41.53
2018-11-26T01:03:18.456Z,42.00
2018-11-26T01:05:46.146Z,41.13
2018-11-26T01:08:13.823Z,36.70
2018-11-26T01:10:41.431Z,40.70
2018-11-26T01:13:09.078Z,34.77
2018-11-26T01:15:36.675Z,39.67
2018-11-26T01:18:06.045Z,38.27
2018-11-26T01:20:33.672Z,35.37
2018-11-26T01:23:01.828Z,31.90
2018-11-26T01:25:29.565Z,31.13
2018-11-26T01:27:57.399Z,32.80
2018-11-26T01:30:24.983Z,32.27
2018-11-26T01:32:52.620Z,33.03
2018-11-26T01:35:20.311Z,35.97
2018-11-26T01:37:48.041Z,30.47
2018-11-26T01:40:20.526Z,33.87
2018-11-26T01:42:48.429Z,32.17
2018-11-26T01:45:16.248Z,29.53
2018-11-26T01:47:43.996Z,31.73
2018-11-26T01:50:11.944Z,34.10
2018-11-26T01:52:39.700Z,33.50
2018-11-26T01:55:08.945Z,29.70
2018-11-26T01:57:36.739Z,31.43
2018-11-26T02:00:17.021Z,29.63
2018-11-26T02:02:44.704Z,27.83
2018-11-26T02:05:12.447Z,28.10
2018-11-26T02:07:40.126Z,29.07
2018-11-26T02:10:13.813Z,26.83
2018-11-26T02:12:41.501Z,28.30
2018-11-26T02:15:13.492Z,29.23
2018-11-26T02:17:41.186Z,27.30
2018-11-26T02:20:09.753Z,28.43
2018-11-26T02:22:37.764Z,29.80
2018-11-26T02:25:06.571Z,25.17
2018-11-26T02:27:34.338Z,25.53
2018-11-26T02:30:01.903Z,28.60
2018-11-26T02:32:29.681Z,30.10
2018-11-26T02:34:57.432Z,30.90
2018-11-26T02:37:25.051Z,29.10
2018-11-26T02:39:53.784Z,27.70
2018-11-26T02:42:21.450Z,27.77
2018-11-26T02:44:49.107Z,25.47
2018-11-26T02:47:16.829Z,30.70
2018-11-26T02:49:44.556Z,27.10
2018-11-26T02:52:12.630Z,28.50
2018-11-26T02:54:40.376Z,26.80
2018-11-26T02:57:08.057Z,27.17
2018-11-26T02:59:35.787Z,25.77
2018-11-26T03:02:03.310Z,29.43
2018-11-26T03:04:31.046Z,25.80
2018-11-26T03:06:58.721Z,22.77
2018-11-26T03:09:26.384Z,22.00
2018-11-26T03:11:54.134Z,23.93
2018-11-26T03:14:21.915Z,23.47
2018-11-26T03:16:49.577Z,25.40
2018-11-26T03:19:17.224Z,26.10
2018-11-26T03:21:44.916Z,23.70
2018-11-26T03:24:12.540Z,24.87
2018-11-26T03:26:40.205Z,25.80
2018-11-26T03:29:07.872Z,20.70
2018-11-26T03:31:35.615Z,24.73
2018-11-26T03:34:03.237Z,26.50
2018-11-26T03:36:30.984Z,25.23
2018-11-26T03:38:58.647Z,23.63
2018-11-26T03:41:26.469Z,27.13
2018-11-26T03:43:54.269Z,26.13
2018-11-26T03:46:21.943Z,21.67
2018-11-26T03:48:49.644Z,24.80
2018-11-26T03:51:18.444Z,25.90
2018-11-26T03:53:46.311Z,29.90
2018-11-26T03:56:14.042Z,23.77
2018-11-26T03:58:41.786Z,26.80
2018-11-26T04:01:09.466Z,21.73
2018-11-26T04:03:37.224Z,25.80
2018-11-26T04:06:04.916Z,24.33
2018-11-26T04:08:32.575Z,24.20
2018-11-26T04:11:00.307Z,22.50
2018-11-26T04:13:28.116Z,22.90
2018-11-26T04:15:55.789Z,23.97
2018-11-26T04:18:23.541Z,26.50
2018-11-26T04:20:51.155Z,27.23
2018-11-26T04:23:19.168Z,26.00
2018-11-26T04:25:46.811Z,25.27
2018-11-26T04:28:14.452Z,29.37
2018-11-26T04:30:42.199Z,27.30
2018-11-26T04:33:09.824Z,25.07
2018-11-26T04:35:37.489Z,25.47
2018-11-26T04:38:05.381Z,27.83
2018-11-26T04:40:33.051Z,24.40
2018-11-26T04:43:00.844Z,24.80
2018-11-26T04:45:28.459Z,26.63
2018-11-26T04:47:56.981Z,23.50
2018-11-26T04:50:24.719Z,25.67
2018-11-26T04:52:52.569Z,24.20
2018-11-26T04:55:20.268Z,23.70
2018-11-26T04:57:48.000Z,25.47
2018-11-26T05:00:15.827Z,28.83
2018-11-26T05:02:43.573Z,25.17
2018-11-26T05:05:12.145Z,28.67
2018-11-26T05:07:39.849Z,23.40
2018-11-26T05:10:10.081Z,26.00
2018-11-26T05:12:37.964Z,25.47
2018-11-26T05:15:07.338Z,24.43
2018-11-26T05:17:34.939Z,24.83
2018-11-26T05:20:03.625Z,23.20
2018-11-26T05:22:31.325Z,23.03
2018-11-26T05:24:59.049Z,25.20
2018-11-26T05:27:26.682Z,26.63
2018-11-26T05:29:54.310Z,25.20
2018-11-26T05:32:22.162Z,25.57
2018-11-26T05:34:49.978Z,28.30
2018-11-26T05:37:17.687Z,24.13
2018-11-26T05:39:45.324Z,25.33
2018-11-26T05:42:13.096Z,23.47
2018-11-26T05:44:40.876Z,30.73
2018-11-26T05:47:08.513Z,37.53
2018-11-26T05:49:36.145Z,34.70
2018-11-26T05:52:04.118Z,29.33
2018-11-26T05:54:31.986Z,25.53
2018-11-26T05:56:59.616Z,24.27
2018-11-26T05:59:27.252Z,25.27
2018-11-26T06:01:54.991Z,26.10
2018-11-26T06:04:22.612Z,26.30
2018-11-26T06:06:50.400Z,23.00
2018-11-26T06:09:17.988Z,20.73
2018-11-26T06:11:45.583Z,26.80
2018-11-26T06:14:13.205Z,22.40
2018-11-26T06:16:40.866Z,24.50
2018-11-26T06:19:08.555Z,31.57
2018-11-26T06:21:36.261Z,41.47
2018-11-26T06:24:03.868Z,37.47
2018-11-26T06:26:31.670Z,27.20
2018-11-26T06:28:59.330Z,26.27
2018-11-26T06:31:27.143Z,28.00
2018-11-26T06:33:54.936Z,24.43
2018-11-26T06:36:22.706Z,24.40
2018-11-26T06:38:50.535Z,24.47
2018-11-26T06:41:18.329Z,34.00
2018-11-26T06:43:46.132Z,25.63
2018-11-26T06:46:14.661Z,26.37
2018-11-26T06:48:42.572Z,27.67
2018-11-26T06:51:10.370Z,28.07
2018-11-26T06:53:38.268Z,29.67
2018-11-26T06:56:06.074Z,30.47
2018-11-26T06:58:33.952Z,27.23
2018-11-26T07:01:01.810Z,27.87
2018-11-26T07:03:29.657Z,30.23
2018-11-26T07:05:57.364Z,27.83
2018-11-26T07:08:25.113Z,30.30
2018-11-26T07:10:52.825Z,27.00
2018-11-26T07:13:20.531Z,28.30
2018-11-26T07:15:48.253Z,28.60
2018-11-26T07:18:15.898Z,26.37
2018-11-26T07:20:43.509Z,25.83
2018-11-26T07:23:11.375Z,26.33
2018-11-26T07:25:39.096Z,29.20
2018-11-26T07:28:07.853Z,25.57
2018-11-26T07:30:35.547Z,23.50
2018-11-26T07:33:03.350Z,23.33
2018-11-26T07:35:31.784Z,24.60
2018-11-26T07:37:59.495Z,25.87
2018-11-26T07:40:27.194Z,24.80
2018-11-26T07:42:58.258Z,24.03
2018-11-26T07:45:26.645Z,25.53
2018-11-26T07:47:55.118Z,22.27
2018-11-26T07:50:23.468Z,25.90
2018-11-26T07:52:51.803Z,29.63
2018-11-26T07:55:20.675Z,24.53
2018-11-26T07:57:48.737Z,24.70
2018-11-26T08:00:19.275Z,26.47
2018-11-26T08:02:47.935Z,24.97
2018-11-26T08:05:20.100Z,25.77
2018-11-26T08:07:48.437Z,22.67
2018-11-26T08:10:19.339Z,31.23
2018-11-26T08:12:48.251Z,29.63
2018-11-26T08:15:20.406Z,28.30
2018-11-26T08:17:48.403Z,27.63
2018-11-26T08:20:16.619Z,26.97
2018-11-26T08:22:45.122Z,31.07
2018-11-26T08:25:14.319Z,26.27
2018-11-26T08:27:43.379Z,24.37
2018-11-26T08:30:18.397Z,23.37
2018-11-26T08:32:47.556Z,23.97
2018-11-26T08:35:16.432Z,27.10
2018-11-26T08:37:50.516Z,28.90
2018-11-26T08:40:24.909Z,25.57
2018-11-26T08:42:58.978Z,23.50
2018-11-26T08:45:29.438Z,27.57
2018-11-26T08:48:03.433Z,28.00
2018-11-26T08:50:31.638Z,32.90
2018-11-26T08:52:59.921Z,23.80
2018-11-26T08:55:27.955Z,29.70
2018-11-26T08:57:56.272Z,28.10
2018-11-26T09:00:24.334Z,25.67
2018-11-26T09:02:55.599Z,30.07
2018-11-26T09:05:29.115Z,27.30
2018-11-26T09:07:56.911Z,29.90
2018-11-26T09:10:24.730Z,25.87
2018-11-26T09:12:52.432Z,26.50
2018-11-26T09:15:20.153Z,26.03
2018-11-26T09:17:47.800Z,26.40
2018-11-26T09:20:15.406Z,29.10
2018-11-26T09:22:43.606Z,25.37
2018-11-26T09:25:11.990Z,23.90
2018-11-26T09:27:39.670Z,24.70
2018-11-26T09:30:12.348Z,24.10
2018-11-26T09:32:40.815Z,23.37
2018-11-26T09:35:10.563Z,26.33
2018-11-26T09:37:38.274Z,23.30
2018-11-26T09:40:07.725Z,23.53
2018-11-26T09:42:35.985Z,27.13
2018-11-26T09:45:05.296Z,25.00
2018-11-26T09:47:33.103Z,22.90
2018-11-26T09:50:01.776Z,25.63
2018-11-26T09:52:29.489Z,30.33
2018-11-26T09:54:57.239Z,27.17
2018-11-26T09:57:25.014Z,25.33
2018-11-26T09:59:52.785Z,26.30
2018-11-26T10:02:20.516Z,22.40
2018-11-26T10:04:48.164Z,25.10
2018-11-26T10:07:15.920Z,23.27
2018-11-26T10:09:43.684Z,30.13
2018-11-26T10:12:11.275Z,38.90
2018-11-26T10:14:39.039Z,25.87
2018-11-26T10:17:06.829Z,30.60
2018-11-26T10:19:34.951Z,39.00
2018-11-26T10:22:02.542Z,40.13
2018-11-26T10:24:30.205Z,31.37
2018-11-26T10:26:57.889Z,29.53
2018-11-26T10:29:25.684Z,32.23
2018-11-26T10:31:53.429Z,33.83
2018-11-26T10:34:21.117Z,23.33
2018-11-26T10:36:49.595Z,29.97
2018-11-26T10:39:17.318Z,24.80
2018-11-26T10:41:45.055Z,30.33
2018-11-26T10:44:12.827Z,28.57
2018-11-26T10:46:40.504Z,30.07
2018-11-26T10:49:08.242Z,29.03
2018-11-26T10:51:36.006Z,29.00
2018-11-26T10:54:03.910Z,25.70
2018-11-26T10:56:32.194Z,25.50
2018-11-26T10:58:59.611Z,27.77
2018-11-26T11:01:33.120Z,51.43
2018-11-26T11:04:00.897Z,39.40
2018-11-26T11:06:28.688Z,37.10
2018-11-26T11:08:56.334Z,30.60
2018-11-26T11:11:24.197Z,27.80
2018-11-26T11:13:51.936Z,27.40
2018-11-26T11:16:19.598Z,34.97
2018-11-26T11:18:47.358Z,26.43
2018-11-26T11:21:15.035Z,26.00
2018-11-26T11:23:43.028Z,29.53
2018-11-26T11:26:10.846Z,26.70
2018-11-26T11:28:38.619Z,28.03
2018-11-26T11:31:06.426Z,31.23
2018-11-26T11:33:34.201Z,25.33
2018-11-26T11:36:01.952Z,26.30
2018-11-26T11:38:29.812Z,25.77
2018-11-26T11:40:57.628Z,28.13
2018-11-26T11:43:25.321Z,34.70
2018-11-26T11:45:53.067Z,39.90
2018-11-26T11:48:20.828Z,35.07
2018-11-26T11:50:48.553Z,32.13
2018-11-26T11:53:16.225Z,30.63
2018-11-26T11:55:43.992Z,26.30
2018-11-26T11:58:12.531Z,29.43
2018-11-26T12:00:40.837Z,28.37
2018-11-26T12:03:16.489Z,28.77
2018-11-26T12:05:44.146Z,28.87
2018-11-26T12:08:11.964Z,25.73
2018-11-26T12:10:39.609Z,35.10
2018-11-26T12:13:08.899Z,27.50
2018-11-26T12:15:38.310Z,29.77
2018-11-26T12:18:06.615Z,25.93
2018-11-26T12:20:34.865Z,29.80
2018-11-26T12:23:02.471Z,27.77
2018-11-26T12:25:30.153Z,28.90
2018-11-26T12:27:57.912Z,31.97
2018-11-26T12:30:27.125Z,31.93
2018-11-26T12:32:54.934Z,31.33
2018-11-26T12:35:22.642Z,27.63
2018-11-26T12:37:50.778Z,24.47
2018-11-26T12:40:24.448Z,28.37
2018-11-26T12:42:53.310Z,24.20
2018-11-26T12:45:25.305Z,37.60
2018-11-26T12:47:53.051Z,129.17
2018-11-26T12:50:20.827Z,95.30
2018-11-26T12:52:48.484Z,50.03
2018-11-26T12:55:17.278Z,38.20
2018-11-26T12:57:45.892Z,31.47
2018-11-26T13:00:15.204Z,29.90
2018-11-26T13:02:43.735Z,26.80
2018-11-26T13:05:13.774Z,28.13
2018-11-26T13:07:41.512Z,30.57
2018-11-26T13:10:11.117Z,26.90
2018-11-26T13:12:38.837Z,29.43
2018-11-26T13:15:11.063Z,29.67
2018-11-26T13:17:39.001Z,23.53
2018-11-26T13:20:10.865Z,31.80
2018-11-26T13:22:38.716Z,29.60
2018-11-26T13:25:11.049Z,29.53
2018-11-26T13:27:41.289Z,42.00
2018-11-26T13:30:16.560Z,43.07
2018-11-26T13:32:45.722Z,34.63
2018-11-26T13:35:14.450Z,31.97
2018-11-26T13:37:42.307Z,32.70
2018-11-26T13:40:12.044Z,26.40
2018-11-26T13:42:40.055Z,30.60
2018-11-26T13:45:12.779Z,27.67
2018-11-26T13:47:40.650Z,28.90
2018-11-26T13:50:14.608Z,29.63
2018-11-26T13:52:43.150Z,36.50
2018-11-26T13:55:11.869Z,28.23
2018-11-26T13:57:39.478Z,30.40
2018-11-26T14:00:10.689Z,30.60
2018-11-26T14:02:38.696Z,28.47
2018-11-26T14:05:12.072Z,26.30
2018-11-26T14:07:39.907Z,27.83
2018-11-26T14:10:10.917Z,33.73
2018-11-26T14:12:38.638Z,39.80
2018-11-26T14:15:10.986Z,33.23
2018-11-26T14:17:38.734Z,25.50
2018-11-26T14:20:09.125Z,27.30
2018-11-26T14:22:36.759Z,29.93
2018-11-26T14:25:05.468Z,29.70
2018-11-26T14:27:34.492Z,29.50
2018-11-26T14:30:02.088Z,28.93
2018-11-26T14:32:30.034Z,26.07
2018-11-26T14:34:57.827Z,26.03
2018-11-26T14:37:25.388Z,25.53
2018-11-26T14:39:53.090Z,25.17
2018-11-26T14:42:20.864Z,35.30
2018-11-26T14:44:48.765Z,30.03
2018-11-26T14:47:16.563Z,31.03
2018-11-26T14:49:44.200Z,30.30
2018-11-26T14:52:11.972Z,28.43
2018-11-26T14:54:40.082Z,31.20
2018-11-26T14:57:08.204Z,27.87
2018-11-26T14:59:35.866Z,29.87
2018-11-26T15:02:04.064Z,32.83
2018-11-26T15:04:31.876Z,34.73
2018-11-26T15:07:00.066Z,30.13
2018-11-26T15:09:27.721Z,37.00
2018-11-26T15:11:55.519Z,30.33
2018-11-26T15:14:23.861Z,35.93
2018-11-26T15:16:51.596Z,32.97
2018-11-26T15:19:19.295Z,39.97
2018-11-26T15:21:47.931Z,36.83
2018-11-26T15:24:15.906Z,31.30
2018-11-26T15:26:43.797Z,37.40
2018-11-26T15:29:11.693Z,37.50
2018-11-26T15:31:39.574Z,39.63
2018-11-26T15:34:07.359Z,42.10
2018-11-26T15:36:35.131Z,36.47
2018-11-26T15:39:03.276Z,37.00
2018-11-26T15:41:31.920Z,32.40
2018-11-26T15:43:59.480Z,36.57
2018-11-26T15:46:27.162Z,37.43
2018-11-26T15:48:54.874Z,37.87
2018-11-26T15:51:22.783Z,41.20
2018-11-26T15:53:50.630Z,37.93
2018-11-26T15:56:18.355Z,35.90
2018-11-26T15:58:46.423Z,37.63
2018-11-26T16:01:14.667Z,39.83
2018-11-26T16:03:42.620Z,41.17
2018-11-26T16:06:10.512Z,34.57
2018-11-26T16:08:38.335Z,40.27
2018-11-26T16:11:06.317Z,37.53
2018-11-26T16:13:34.023Z,36.40
2018-11-26T16:16:01.879Z,40.27
2018-11-26T16:18:29.687Z,39.17
2018-11-26T16:20:57.964Z,37.20
2018-11-26T16:23:25.827Z,34.97
2018-11-26T16:25:53.754Z,39.83
2018-11-26T16:28:22.714Z,46.00
2018-11-26T16:30:50.624Z,37.33
2018-11-26T16:33:18.487Z,44.50
2018-11-26T16:35:46.688Z,34.87
2018-11-26T16:38:14.563Z,38.33
2018-11-26T16:40:42.505Z,33.90
2018-11-26T16:43:10.281Z,31.30
2018-11-26T16:45:37.923Z,40.00
2018-11-26T16:48:05.963Z,35.93
2018-11-26T16:50:34.880Z,34.23
2018-11-26T16:53:02.857Z,34.03
2018-11-26T16:55:30.524Z,36.53
2018-11-26T16:57:58.297Z,40.30
2018-11-26T17:00:27.193Z,36.37
2018-11-26T17:02:58.267Z,38.53
2018-11-26T17:05:32.477Z,38.70
2018-11-26T17:08:00.434Z,35.40
2018-11-26T17:10:28.164Z,38.27
2018-11-26T17:12:57.141Z,37.87
2018-11-26T17:15:25.032Z,41.00
2018-11-26T17:17:52.924Z,41.67
2018-11-26T17:20:21.902Z,35.67
2018-11-26T17:22:49.762Z,41.17
2018-11-26T17:25:18.156Z,43.47
2018-11-26T17:27:46.162Z,36.63
2018-11-26T17:30:22.268Z,41.83
2018-11-26T17:32:52.715Z,35.17
2018-11-26T17:35:20.433Z,38.93
2018-11-26T17:37:48.231Z,31.53
2018-11-26T17:40:18.068Z,39.83
2018-11-26T17:42:45.653Z,35.93
2018-11-26T17:45:13.948Z,36.03
2018-11-26T17:47:43.288Z,41.50
2018-11-26T17:50:33.828Z,32.27
2018-11-26T17:53:01.544Z,38.03
2018-11-26T17:55:29.558Z,38.00
2018-11-26T17:57:57.400Z,36.83
2018-11-26T18:00:26.993Z,47.63
2018-11-26T18:02:55.072Z,47.40
2018-11-26T18:05:27.392Z,38.13
2018-11-26T18:09:04.332Z,36.10
2018-11-26T18:11:32.228Z,37.87
2018-11-26T18:14:00.054Z,38.73
2018-11-26T18:16:28.122Z,39.27
2018-11-26T18:18:56.114Z,43.20
2018-11-26T18:21:24.241Z,41.70
2018-11-26T18:23:52.019Z,35.30
2018-11-26T18:26:19.870Z,32.30
2018-11-26T18:28:47.911Z,36.23
2018-11-26T18:31:15.655Z,36.27
2018-11-26T18:33:43.337Z,36.37
2018-11-26T18:36:11.852Z,39.13
2018-11-26T18:38:39.658Z,39.67
2018-11-26T18:41:07.479Z,37.47
2018-11-26T18:43:35.387Z,37.50
2018-11-26T18:46:03.246Z,36.70
2018-11-26T18:48:30.991Z,41.00
2018-11-26T18:50:58.684Z,35.27
2018-11-26T18:53:26.324Z,37.70
2018-11-26T18:55:54.074Z,34.93
2018-11-26T18:58:22.113Z,38.97
2018-11-26T19:00:52.530Z,40.20
2018-11-26T19:03:21.363Z,37.70
2018-11-26T19:05:50.411Z,37.43
2018-11-26T19:08:18.065Z,35.93
2018-11-26T19:10:46.665Z,38.23
2018-11-26T19:13:17.600Z,38.33
2018-11-26T19:15:46.849Z,34.83
2018-11-26T19:18:20.291Z,37.63
2018-11-26T19:20:48.111Z,43.23
2018-11-26T19:23:16.194Z,35.53
2018-11-26T19:25:45.881Z,39.73
2018-11-26T19:28:13.626Z,35.83
2018-11-26T19:30:41.367Z,37.30
2018-11-26T19:33:10.057Z,37.50
2018-11-26T19:35:38.597Z,38.60
2018-11-26T19:38:06.846Z,39.03
2018-11-26T19:40:35.521Z,39.27
2018-11-26T19:43:03.287Z,40.27
2018-11-26T19:45:31.046Z,34.93
2018-11-26T19:47:58.798Z,34.90
2018-11-26T19:50:26.594Z,38.77
2018-11-26T19:52:54.788Z,36.83
2018-11-26T19:55:23.605Z,40.17
2018-11-26T19:57:52.062Z,39.30
2018-11-26T20:00:26.448Z,39.33
2018-11-26T20:04:03.853Z,36.13
2018-11-26T20:06:31.991Z,38.03
2018-11-26T20:09:00.440Z,54.20
2018-11-26T20:11:33.136Z,39.67
2018-11-26T20:13:57.027Z,39.27
2018-11-26T20:16:28.210Z,40.17
2018-11-26T20:18:56.188Z,39.23
2018-11-26T20:21:24.025Z,37.53
2018-11-26T20:23:51.989Z,38.23
2018-11-26T20:26:19.672Z,43.20
2018-11-26T20:28:47.349Z,38.07
2018-11-26T20:31:15.048Z,39.00
2018-11-26T20:33:42.699Z,45.10
2018-11-26T20:36:11.878Z,42.10
2018-11-26T20:38:39.617Z,35.80
2018-11-26T20:41:08.560Z,44.43
2018-11-26T20:43:36.174Z,39.87
2018-11-26T20:46:03.784Z,36.70
2018-11-26T20:48:31.719Z,34.40
2018-11-26T20:50:59.612Z,39.67
2018-11-26T20:53:28.593Z,40.47
2018-11-26T20:55:56.416Z,41.13
2018-11-26T20:58:24.292Z,36.37
2018-11-26T21:00:52.146Z,43.10
2018-11-26T21:03:19.943Z,40.90
2018-11-26T21:05:47.743Z,37.20
2018-11-26T21:08:15.747Z,40.53
2018-11-26T21:10:43.451Z,37.50
2018-11-26T21:13:11.105Z,40.93
2018-11-26T21:15:38.950Z,37.83
2018-11-26T21:18:10.845Z,38.17
2018-11-26T21:20:42.315Z,39.80
2018-11-26T21:23:12.004Z,34.80
2018-11-26T21:25:39.895Z,36.33
2018-11-26T21:28:07.857Z,34.60
2018-11-26T21:30:35.586Z,35.73
2018-11-26T21:33:03.625Z,39.97
2018-11-26T21:35:31.907Z,41.07
2018-11-26T21:37:59.985Z,38.30
2018-11-26T21:40:27.921Z,31.10
2018-11-26T21:42:55.566Z,35.30
2018-11-26T21:45:28.250Z,37.37
2018-11-26T21:47:55.895Z,36.93
2018-11-26T21:50:24.322Z,34.87
2018-11-26T21:52:52.170Z,50.93
2018-11-26T21:55:20.030Z,39.50
2018-11-26T21:57:47.826Z,36.97
2018-11-26T22:00:25.338Z,37.03
2018-11-26T22:02:53.465Z,37.47
2018-11-26T22:05:21.221Z,35.70
2018-11-26T22:07:48.859Z,36.20
2018-11-26T22:10:18.859Z,31.77
2018-11-26T22:12:49.159Z,35.43
2018-11-26T22:15:16.799Z,33.90
2018-11-26T22:17:44.650Z,35.00
2018-11-26T22:20:14.984Z,29.90
2018-11-26T22:22:42.862Z,32.70
2018-11-26T22:25:11.179Z,31.57
2018-11-26T22:27:38.991Z,31.47
2018-11-26T22:30:11.871Z,31.37
2018-11-26T22:32:39.975Z,34.43
2018-11-26T22:35:08.162Z,29.50
2018-11-26T22:37:36.511Z,30.50
2018-11-26T22:40:08.828Z,30.60
2018-11-26T22:42:37.152Z,33.00
2018-11-26T22:45:08.509Z,33.37
2018-11-26T22:47:36.515Z,32.43
2018-11-26T22:50:09.776Z,28.83
2018-11-26T22:52:38.192Z,34.77
2018-11-26T22:55:06.289Z,33.10
2018-11-26T22:57:33.905Z,28.93
2018-11-26T23:00:01.767Z,27.80
2018-11-26T23:02:29.744Z,33.13
2018-11-26T23:04:57.672Z,34.50
2018-11-26T23:07:25.455Z,33.23
2018-11-26T23:09:53.165Z,31.27
2018-11-26T23:12:21.148Z,30.80
2018-11-26T23:14:48.866Z,29.30
2018-11-26T23:17:16.563Z,29.60
2018-11-26T23:19:44.310Z,30.57
2018-11-26T23:22:12.083Z,34.63
2018-11-26T23:24:39.898Z,33.50
2018-11-26T23:27:07.513Z,30.63
2018-11-26T23:29:35.325Z,32.53
2018-11-26T23:32:03.052Z,35.03
2018-11-26T23:34:31.014Z,29.97
2018-11-26T23:36:58.647Z,27.43
2018-11-26T23:39:27.378Z,29.63
2018-11-26T23:41:54.384Z,30.47
2018-11-26T23:44:22.070Z,32.97
2018-11-26T23:46:49.760Z,28.57
2018-11-26T23:49:17.530Z,29.10
2018-11-26T23:51:45.275Z,32.50
2018-11-26T23:54:13.118Z,28.43
2018-11-26T23:56:41.436Z,32.43
2018-11-26T23:59:09.224Z,30.33
